sensor_id;sensor_type;location;lat;lon;timestamp;P1;durP1;ratioP1;P2;durP2;ratioP2
17265;SDS011;8749;47.076;15.412;2022-09-28T00:01:32;11.02;;;4.80;;
17265;SDS011;8749;47.076;15.412;2022-09-28T00:04:01;6.20;;;3.88;;
17265;SDS011;8749;47.076;15.412;2022-09-28T00:06:30;4.53;;;3.10;;
17265;SDS011;8749;47.076;15.412;2022-09-28T00:08:57;3.13;;;2.88;;
17265;SDS011;8749;47.076;15.412;2022-09-28T00:11:25;2.35;;;2.05;;
17265;SDS011;8749;47.076;15.412;2022-09-28T00:13:55;1.83;;;1.73;;
17265;SDS011;8749;47.076;15.412;2022-09-28T00:16:25;1.75;;;1.65;;
17265;SDS011;8749;47.076;15.412;2022-09-28T00:18:53;1.50;;;1.50;;
17265;SDS011;8749;47.076;15.412;2022-09-28T00:21:22;2.80;;;1.70;;
17265;SDS011;8749;47.076;15.412;2022-09-28T00:23:51;3.85;;;1.60;;
17265;SDS011;8749;47.076;15.412;2022-09-28T00:26:35;2.05;;;1.30;;
17265;SDS011;8749;47.076;15.412;2022-09-28T00:29:04;1.50;;;1.40;;
17265;SDS011;8749;47.076;15.412;2022-09-28T00:31:32;1.55;;;1.40;;
17265;SDS011;8749;47.076;15.412;2022-09-28T00:33:59;1.40;;;1.30;;
17265;SDS011;8749;47.076;15.412;2022-09-28T00:36:31;1.50;;;1.40;;
17265;SDS011;8749;47.076;15.412;2022-09-28T00:39:02;1.58;;;1.20;;
17265;SDS011;8749;47.076;15.412;2022-09-28T00:41:31;3.00;;;1.50;;
17265;SDS011;8749;47.076;15.412;2022-09-28T00:47:00;1.75;;;1.65;;
17265;SDS011;8749;47.076;15.412;2022-09-28T00:49:34;2.35;;;1.75;;
17265;SDS011;8749;47.076;15.412;2022-09-28T00:52:09;1.90;;;1.80;;
17265;SDS011;8749;47.076;15.412;2022-09-28T00:54:38;1.73;;;1.63;;
17265;SDS011;8749;47.076;15.412;2022-09-28T00:57:08;3.25;;;1.80;;
17265;SDS011;8749;47.076;15.412;2022-09-28T00:59:35;1.92;;;1.83;;
17265;SDS011;8749;47.076;15.412;2022-09-28T01:02:02;2.15;;;1.88;;
17265;SDS011;8749;47.076;15.412;2022-09-28T01:04:29;2.03;;;1.92;;
17265;SDS011;8749;47.076;15.412;2022-09-28T01:06:56;1.90;;;1.80;;
17265;SDS011;8749;47.076;15.412;2022-09-28T01:09:27;3.05;;;1.60;;
17265;SDS011;8749;47.076;15.412;2022-09-28T01:11:55;2.25;;;2.08;;
17265;SDS011;8749;47.076;15.412;2022-09-28T01:14:22;3.97;;;1.92;;
17265;SDS011;8749;47.076;15.412;2022-09-28T01:16:52;2.20;;;1.90;;
17265;SDS011;8749;47.076;15.412;2022-09-28T01:22:33;3.72;;;1.60;;
17265;SDS011;8749;47.076;15.412;2022-09-28T01:25:35;1.40;;;1.40;;
17265;SDS011;8749;47.076;15.412;2022-09-28T01:28:07;1.95;;;1.85;;
17265;SDS011;8749;47.076;15.412;2022-09-28T01:30:41;11.32;;;7.78;;
17265;SDS011;8749;47.076;15.412;2022-09-28T01:33:12;4.05;;;3.30;;
17265;SDS011;8749;47.076;15.412;2022-09-28T01:35:47;3.10;;;2.80;;
17265;SDS011;8749;47.076;15.412;2022-09-28T01:38:18;2.90;;;2.17;;
17265;SDS011;8749;47.076;15.412;2022-09-28T01:40:47;2.20;;;2.10;;
17265;SDS011;8749;47.076;15.412;2022-09-28T01:43:18;1.33;;;1.33;;
17265;SDS011;8749;47.076;15.412;2022-09-28T01:45:48;1.45;;;1.42;;
17265;SDS011;8749;47.076;15.412;2022-09-28T01:48:20;1.30;;;1.30;;
17265;SDS011;8749;47.076;15.412;2022-09-28T01:50:53;1.70;;;1.60;;
17265;SDS011;8749;47.076;15.412;2022-09-28T01:53:24;3.20;;;1.70;;
17265;SDS011;8749;47.076;15.412;2022-09-28T01:55:58;1.58;;;1.55;;
17265;SDS011;8749;47.076;15.412;2022-09-28T01:58:31;2.70;;;1.80;;
17265;SDS011;8749;47.076;15.412;2022-09-28T02:01:02;1.80;;;1.50;;
17265;SDS011;8749;47.076;15.412;2022-09-28T02:03:35;3.00;;;2.80;;
17265;SDS011;8749;47.076;15.412;2022-09-28T02:06:07;3.45;;;3.25;;
17265;SDS011;8749;47.076;15.412;2022-09-28T02:08:38;3.42;;;3.20;;
17265;SDS011;8749;47.076;15.412;2022-09-28T02:11:11;4.50;;;3.40;;
17265;SDS011;8749;47.076;15.412;2022-09-28T02:13:41;3.50;;;3.30;;
17265;SDS011;8749;47.076;15.412;2022-09-28T02:16:13;4.22;;;2.55;;
17265;SDS011;8749;47.076;15.412;2022-09-28T02:18:43;2.53;;;2.40;;
17265;SDS011;8749;47.076;15.412;2022-09-28T02:21:12;2.42;;;2.22;;
17265;SDS011;8749;47.076;15.412;2022-09-28T02:23:44;2.47;;;2.05;;
17265;SDS011;8749;47.076;15.412;2022-09-28T02:26:19;1.90;;;1.80;;
17265;SDS011;8749;47.076;15.412;2022-09-28T02:28:51;2.20;;;1.60;;
17265;SDS011;8749;47.076;15.412;2022-09-28T02:31:18;1.65;;;1.55;;
17265;SDS011;8749;47.076;15.412;2022-09-28T02:33:45;2.05;;;1.65;;
17265;SDS011;8749;47.076;15.412;2022-09-28T02:36:15;3.00;;;1.63;;
17265;SDS011;8749;47.076;15.412;2022-09-28T02:38:42;1.60;;;1.50;;
17265;SDS011;8749;47.076;15.412;2022-09-28T02:41:11;3.55;;;1.70;;
17265;SDS011;8749;47.076;15.412;2022-09-28T02:43:48;1.30;;;1.30;;
17265;SDS011;8749;47.076;15.412;2022-09-28T02:46:26;1.80;;;1.70;;
17265;SDS011;8749;47.076;15.412;2022-09-28T02:49:01;1.60;;;1.50;;
17265;SDS011;8749;47.076;15.412;2022-09-28T02:51:39;1.63;;;1.52;;
17265;SDS011;8749;47.076;15.412;2022-09-28T02:54:23;1.70;;;1.60;;
17265;SDS011;8749;47.076;15.412;2022-09-28T02:57:09;1.75;;;1.50;;
17265;SDS011;8749;47.076;15.412;2022-09-28T02:59:46;1.42;;;1.33;;
17265;SDS011;8749;47.076;15.412;2022-09-28T03:02:20;2.65;;;1.48;;
17265;SDS011;8749;47.076;15.412;2022-09-28T03:05:08;2.65;;;1.67;;
17265;SDS011;8749;47.076;15.412;2022-09-28T03:07:40;1.52;;;1.50;;
17265;SDS011;8749;47.076;15.412;2022-09-28T03:10:12;1.80;;;1.70;;
17265;SDS011;8749;47.076;15.412;2022-09-28T03:12:42;1.60;;;1.50;;
17265;SDS011;8749;47.076;15.412;2022-09-28T03:15:19;5.53;;;1.63;;
17265;SDS011;8749;47.076;15.412;2022-09-28T03:17:47;1.85;;;1.73;;
17265;SDS011;8749;47.076;15.412;2022-09-28T03:20:14;2.40;;;2.15;;
17265;SDS011;8749;47.076;15.412;2022-09-28T03:22:42;2.10;;;1.90;;
17265;SDS011;8749;47.076;15.412;2022-09-28T03:25:09;1.77;;;1.75;;
17265;SDS011;8749;47.076;15.412;2022-09-28T03:27:36;2.50;;;1.77;;
17265;SDS011;8749;47.076;15.412;2022-09-28T03:30:04;2.20;;;1.92;;
17265;SDS011;8749;47.076;15.412;2022-09-28T03:32:33;1.60;;;1.60;;
17265;SDS011;8749;47.076;15.412;2022-09-28T03:35:00;1.80;;;1.70;;
17265;SDS011;8749;47.076;15.412;2022-09-28T03:37:27;2.80;;;1.85;;
17265;SDS011;8749;47.076;15.412;2022-09-28T03:39:54;7.00;;;2.28;;
17265;SDS011;8749;47.076;15.412;2022-09-28T03:42:21;4.45;;;2.10;;
17265;SDS011;8749;47.076;15.412;2022-09-28T03:44:47;2.28;;;2.15;;
17265;SDS011;8749;47.076;15.412;2022-09-28T03:47:14;3.65;;;2.30;;
17265;SDS011;8749;47.076;15.412;2022-09-28T03:49:43;5.95;;;2.55;;
17265;SDS011;8749;47.076;15.412;2022-09-28T03:52:11;8.32;;;3.10;;
17265;SDS011;8749;47.076;15.412;2022-09-28T03:54:38;3.83;;;2.90;;
17265;SDS011;8749;47.076;15.412;2022-09-28T03:57:05;5.13;;;3.00;;
17265;SDS011;8749;47.076;15.412;2022-09-28T03:59:33;3.28;;;3.08;;
17265;SDS011;8749;47.076;15.412;2022-09-28T04:02:01;8.43;;;4.15;;
17265;SDS011;8749;47.076;15.412;2022-09-28T04:04:29;6.95;;;4.35;;
17265;SDS011;8749;47.076;15.412;2022-09-28T04:06:58;20.70;;;4.95;;
17265;SDS011;8749;47.076;15.412;2022-09-28T04:09:24;12.68;;;5.03;;
17265;SDS011;8749;47.076;15.412;2022-09-28T04:11:51;5.72;;;4.93;;
17265;SDS011;8749;47.076;15.412;2022-09-28T04:14:18;8.85;;;5.10;;
17265;SDS011;8749;47.076;15.412;2022-09-28T04:16:45;124.70;;;7.20;;
17265;SDS011;8749;47.076;15.412;2022-09-28T04:19:13;9.07;;;5.55;;
17265;SDS011;8749;47.076;15.412;2022-09-28T04:21:40;7.55;;;5.38;;
17265;SDS011;8749;47.076;15.412;2022-09-28T04:24:09;11.13;;;5.70;;
17265;SDS011;8749;47.076;15.412;2022-09-28T04:26:36;54.40;;;6.38;;
17265;SDS011;8749;47.076;15.412;2022-09-28T04:29:03;12.95;;;8.50;;
17265;SDS011;8749;47.076;15.412;2022-09-28T04:31:41;17.23;;;5.97;;
17265;SDS011;8749;47.076;15.412;2022-09-28T04:34:11;9.13;;;6.70;;
17265;SDS011;8749;47.076;15.412;2022-09-28T04:36:39;50.58;;;6.40;;
17265;SDS011;8749;47.076;15.412;2022-09-28T04:39:05;92.32;;;11.10;;
17265;SDS011;8749;47.076;15.412;2022-09-28T04:41:34;13.93;;;10.30;;
17265;SDS011;8749;47.076;15.412;2022-09-28T04:44:01;6.90;;;6.20;;
17265;SDS011;8749;47.076;15.412;2022-09-28T04:46:28;7.45;;;5.72;;
17265;SDS011;8749;47.076;15.412;2022-09-28T04:48:55;7.18;;;6.07;;
17265;SDS011;8749;47.076;15.412;2022-09-28T04:51:23;8.90;;;5.95;;
17265;SDS011;8749;47.076;15.412;2022-09-28T04:53:50;6.22;;;5.65;;
17265;SDS011;8749;47.076;15.412;2022-09-28T04:56:17;7.75;;;5.68;;
17265;SDS011;8749;47.076;15.412;2022-09-28T04:58:46;6.15;;;5.55;;
17265;SDS011;8749;47.076;15.412;2022-09-28T05:01:13;5.60;;;5.10;;
17265;SDS011;8749;47.076;15.412;2022-09-28T05:03:41;5.75;;;5.22;;
17265;SDS011;8749;47.076;15.412;2022-09-28T05:06:09;7.63;;;5.15;;
17265;SDS011;8749;47.076;15.412;2022-09-28T05:08:39;5.97;;;5.03;;
17265;SDS011;8749;47.076;15.412;2022-09-28T05:11:06;4.90;;;4.50;;
17265;SDS011;8749;47.076;15.412;2022-09-28T05:13:38;5.22;;;4.72;;
17265;SDS011;8749;47.076;15.412;2022-09-28T05:16:08;6.03;;;5.18;;
17265;SDS011;8749;47.076;15.412;2022-09-28T05:18:35;7.25;;;5.22;;
17265;SDS011;8749;47.076;15.412;2022-09-28T05:21:02;6.10;;;5.22;;
17265;SDS011;8749;47.076;15.412;2022-09-28T05:23:29;7.40;;;5.57;;
17265;SDS011;8749;47.076;15.412;2022-09-28T05:25:59;7.13;;;5.25;;
17265;SDS011;8749;47.076;15.412;2022-09-28T05:28:27;5.97;;;5.32;;
17265;SDS011;8749;47.076;15.412;2022-09-28T05:30:57;6.72;;;5.40;;
17265;SDS011;8749;47.076;15.412;2022-09-28T05:33:26;6.70;;;5.45;;
17265;SDS011;8749;47.076;15.412;2022-09-28T05:35:55;10.18;;;5.68;;
17265;SDS011;8749;47.076;15.412;2022-09-28T05:38:22;13.40;;;6.00;;
17265;SDS011;8749;47.076;15.412;2022-09-28T05:40:49;7.32;;;5.50;;
17265;SDS011;8749;47.076;15.412;2022-09-28T05:43:16;13.57;;;5.95;;
17265;SDS011;8749;47.076;15.412;2022-09-28T05:45:43;8.30;;;6.05;;
17265;SDS011;8749;47.076;15.412;2022-09-28T05:48:10;7.20;;;5.82;;
17265;SDS011;8749;47.076;15.412;2022-09-28T05:50:38;11.40;;;6.25;;
17265;SDS011;8749;47.076;15.412;2022-09-28T05:53:06;7.75;;;6.63;;
17265;SDS011;8749;47.076;15.412;2022-09-28T05:55:34;8.77;;;6.22;;
17265;SDS011;8749;47.076;15.412;2022-09-28T05:58:03;8.30;;;6.88;;
17265;SDS011;8749;47.076;15.412;2022-09-28T06:00:31;13.18;;;8.63;;
17265;SDS011;8749;47.076;15.412;2022-09-28T06:02:59;9.90;;;6.05;;
17265;SDS011;8749;47.076;15.412;2022-09-28T06:05:27;6.50;;;5.15;;
17265;SDS011;8749;47.076;15.412;2022-09-28T06:07:57;8.10;;;4.57;;
17265;SDS011;8749;47.076;15.412;2022-09-28T06:10:24;3.33;;;3.03;;
17265;SDS011;8749;47.076;15.412;2022-09-28T06:12:53;4.20;;;2.80;;
17265;SDS011;8749;47.076;15.412;2022-09-28T06:15:21;6.45;;;2.90;;
17265;SDS011;8749;47.076;15.412;2022-09-28T06:17:54;8.05;;;2.80;;
17265;SDS011;8749;47.076;15.412;2022-09-28T06:20:21;5.25;;;2.40;;
17265;SDS011;8749;47.076;15.412;2022-09-28T06:22:49;2.95;;;2.20;;
17265;SDS011;8749;47.076;15.412;2022-09-28T06:25:18;3.63;;;2.33;;
17265;SDS011;8749;47.076;15.412;2022-09-28T06:27:56;7.70;;;2.28;;
17265;SDS011;8749;47.076;15.412;2022-09-28T06:30:24;2.97;;;2.55;;
17265;SDS011;8749;47.076;15.412;2022-09-28T06:32:52;2.92;;;2.72;;
17265;SDS011;8749;47.076;15.412;2022-09-28T06:35:20;3.03;;;2.72;;
17265;SDS011;8749;47.076;15.412;2022-09-28T06:37:48;4.25;;;2.85;;
17265;SDS011;8749;47.076;15.412;2022-09-28T06:40:15;3.45;;;3.15;;
17265;SDS011;8749;47.076;15.412;2022-09-28T06:42:44;5.40;;;3.35;;
17265;SDS011;8749;47.076;15.412;2022-09-28T06:45:19;5.07;;;3.67;;
17265;SDS011;8749;47.076;15.412;2022-09-28T06:47:51;5.00;;;3.50;;
17265;SDS011;8749;47.076;15.412;2022-09-28T06:50:18;6.55;;;3.50;;
17265;SDS011;8749;47.076;15.412;2022-09-28T06:52:48;4.10;;;3.78;;
17265;SDS011;8749;47.076;15.412;2022-09-28T06:55:15;4.05;;;3.50;;
17265;SDS011;8749;47.076;15.412;2022-09-28T06:57:44;4.22;;;3.80;;
17265;SDS011;8749;47.076;15.412;2022-09-28T07:00:11;4.63;;;3.38;;
17265;SDS011;8749;47.076;15.412;2022-09-28T07:02:39;5.90;;;3.75;;
17265;SDS011;8749;47.076;15.412;2022-09-28T07:05:07;6.45;;;3.83;;
17265;SDS011;8749;47.076;15.412;2022-09-28T07:07:37;3.83;;;3.40;;
17265;SDS011;8749;47.076;15.412;2022-09-28T07:10:08;5.43;;;3.70;;
17265;SDS011;8749;47.076;15.412;2022-09-28T07:12:35;4.05;;;3.45;;
17265;SDS011;8749;47.076;15.412;2022-09-28T07:15:04;3.60;;;3.30;;
17265;SDS011;8749;47.076;15.412;2022-09-28T07:17:33;3.92;;;3.53;;
17265;SDS011;8749;47.076;15.412;2022-09-28T07:20:00;7.20;;;3.22;;
17265;SDS011;8749;47.076;15.412;2022-09-28T07:22:27;3.22;;;2.90;;
17265;SDS011;8749;47.076;15.412;2022-09-28T07:24:54;4.47;;;3.08;;
17265;SDS011;8749;47.076;15.412;2022-09-28T07:27:22;5.05;;;3.78;;
17265;SDS011;8749;47.076;15.412;2022-09-28T07:29:49;5.15;;;3.00;;
17265;SDS011;8749;47.076;15.412;2022-09-28T07:32:18;4.53;;;3.40;;
17265;SDS011;8749;47.076;15.412;2022-09-28T07:34:45;2.90;;;2.70;;
17265;SDS011;8749;47.076;15.412;2022-09-28T07:37:13;4.80;;;3.38;;
17265;SDS011;8749;47.076;15.412;2022-09-28T07:39:40;3.13;;;2.80;;
17265;SDS011;8749;47.076;15.412;2022-09-28T07:42:30;3.15;;;2.80;;
17265;SDS011;8749;47.076;15.412;2022-09-28T07:44:57;3.33;;;2.80;;
17265;SDS011;8749;47.076;15.412;2022-09-28T07:47:25;2.63;;;2.42;;
17265;SDS011;8749;47.076;15.412;2022-09-28T07:49:52;3.42;;;2.00;;
17265;SDS011;8749;47.076;15.412;2022-09-28T07:52:21;9.85;;;6.70;;
17265;SDS011;8749;47.076;15.412;2022-09-28T07:54:50;12.63;;;8.27;;
17265;SDS011;8749;47.076;15.412;2022-09-28T07:57:18;7.40;;;6.03;;
17265;SDS011;8749;47.076;15.412;2022-09-28T07:59:45;3.80;;;3.50;;
17265;SDS011;8749;47.076;15.412;2022-09-28T08:02:13;3.35;;;2.72;;
17265;SDS011;8749;47.076;15.412;2022-09-28T08:04:43;6.03;;;4.90;;
17265;SDS011;8749;47.076;15.412;2022-09-28T08:07:10;16.08;;;11.25;;
17265;SDS011;8749;47.076;15.412;2022-09-28T08:09:38;15.02;;;8.15;;
17265;SDS011;8749;47.076;15.412;2022-09-28T08:12:05;8.02;;;5.15;;
17265;SDS011;8749;47.076;15.412;2022-09-28T08:14:32;4.30;;;3.53;;
17265;SDS011;8749;47.076;15.412;2022-09-28T08:16:59;5.68;;;3.72;;
17265;SDS011;8749;47.076;15.412;2022-09-28T08:19:26;5.10;;;3.25;;
17265;SDS011;8749;47.076;15.412;2022-09-28T08:22:16;7.25;;;3.70;;
17265;SDS011;8749;47.076;15.412;2022-09-28T08:24:43;8.43;;;3.97;;
17265;SDS011;8749;47.076;15.412;2022-09-28T08:27:10;6.82;;;3.83;;
17265;SDS011;8749;47.076;15.412;2022-09-28T08:29:37;4.93;;;4.43;;
17265;SDS011;8749;47.076;15.412;2022-09-28T08:32:05;4.32;;;4.03;;
17265;SDS011;8749;47.076;15.412;2022-09-28T08:34:33;4.53;;;4.10;;
17265;SDS011;8749;47.076;15.412;2022-09-28T08:37:00;7.20;;;4.88;;
17265;SDS011;8749;47.076;15.412;2022-09-28T08:39:28;10.27;;;4.40;;
17265;SDS011;8749;47.076;15.412;2022-09-28T08:41:58;9.75;;;7.40;;
17265;SDS011;8749;47.076;15.412;2022-09-28T08:44:38;7.70;;;6.60;;
17265;SDS011;8749;47.076;15.412;2022-09-28T08:47:09;6.38;;;5.65;;
17265;SDS011;8749;47.076;15.412;2022-09-28T08:49:56;7.43;;;5.70;;
17265;SDS011;8749;47.076;15.412;2022-09-28T08:52:25;11.75;;;7.82;;
17265;SDS011;8749;47.076;15.412;2022-09-28T08:54:57;13.20;;;7.88;;
17265;SDS011;8749;47.076;15.412;2022-09-28T08:57:28;6.78;;;5.20;;
17265;SDS011;8749;47.076;15.412;2022-09-28T09:00:01;6.32;;;4.70;;
17265;SDS011;8749;47.076;15.412;2022-09-28T09:02:30;4.60;;;4.18;;
17265;SDS011;8749;47.076;15.412;2022-09-28T09:04:58;5.90;;;4.13;;
17265;SDS011;8749;47.076;15.412;2022-09-28T09:07:31;7.50;;;5.00;;
17265;SDS011;8749;47.076;15.412;2022-09-28T09:10:20;10.57;;;6.75;;
17265;SDS011;8749;47.076;15.412;2022-09-28T09:13:11;15.80;;;7.45;;
17265;SDS011;8749;47.076;15.412;2022-09-28T09:15:57;12.30;;;7.47;;
17265;SDS011;8749;47.076;15.412;2022-09-28T09:18:35;11.75;;;7.93;;
17265;SDS011;8749;47.076;15.412;2022-09-28T09:21:04;9.93;;;7.50;;
17265;SDS011;8749;47.076;15.412;2022-09-28T09:23:40;13.43;;;7.60;;
17265;SDS011;8749;47.076;15.412;2022-09-28T09:26:20;12.85;;;7.40;;
17265;SDS011;8749;47.076;15.412;2022-09-28T09:29:09;11.60;;;7.63;;
17265;SDS011;8749;47.076;15.412;2022-09-28T09:31:49;10.93;;;7.05;;
17265;SDS011;8749;47.076;15.412;2022-09-28T09:34:40;9.52;;;7.25;;
17265;SDS011;8749;47.076;15.412;2022-09-28T09:37:33;12.02;;;7.25;;
17265;SDS011;8749;47.076;15.412;2022-09-28T09:40:19;9.65;;;7.07;;
17265;SDS011;8749;47.076;15.412;2022-09-28T09:42:59;9.88;;;6.50;;
17265;SDS011;8749;47.076;15.412;2022-09-28T09:45:35;12.40;;;6.78;;
17265;SDS011;8749;47.076;15.412;2022-09-28T09:48:16;11.18;;;7.05;;
17265;SDS011;8749;47.076;15.412;2022-09-28T09:50:50;7.82;;;6.65;;
17265;SDS011;8749;47.076;15.412;2022-09-28T09:53:22;14.18;;;6.53;;
17265;SDS011;8749;47.076;15.412;2022-09-28T09:55:53;7.18;;;6.43;;
17265;SDS011;8749;47.076;15.412;2022-09-28T09:58:24;5.13;;;4.45;;
17265;SDS011;8749;47.076;15.412;2022-09-28T10:01:01;7.47;;;4.70;;
17265;SDS011;8749;47.076;15.412;2022-09-28T10:03:33;6.13;;;5.22;;
17265;SDS011;8749;47.076;15.412;2022-09-28T10:06:03;6.95;;;5.55;;
17265;SDS011;8749;47.076;15.412;2022-09-28T10:08:36;5.65;;;5.15;;
17265;SDS011;8749;47.076;15.412;2022-09-28T10:11:07;7.65;;;5.00;;
17265;SDS011;8749;47.076;15.412;2022-09-28T10:13:39;7.03;;;4.88;;
17265;SDS011;8749;47.076;15.412;2022-09-28T10:16:07;6.18;;;4.70;;
17265;SDS011;8749;47.076;15.412;2022-09-28T10:18:34;4.53;;;4.22;;
17265;SDS011;8749;47.076;15.412;2022-09-28T10:21:02;5.32;;;3.65;;
17265;SDS011;8749;47.076;15.412;2022-09-28T10:23:30;3.92;;;3.63;;
17265;SDS011;8749;47.076;15.412;2022-09-28T10:25:59;4.07;;;3.78;;
17265;SDS011;8749;47.076;15.412;2022-09-28T10:28:32;6.10;;;3.70;;
17265;SDS011;8749;47.076;15.412;2022-09-28T10:34:01;4.40;;;3.50;;
17265;SDS011;8749;47.076;15.412;2022-09-28T10:36:28;3.55;;;3.25;;
17265;SDS011;8749;47.076;15.412;2022-09-28T10:39:02;3.95;;;3.47;;
17265;SDS011;8749;47.076;15.412;2022-09-28T10:41:30;3.80;;;3.50;;
17265;SDS011;8749;47.076;15.412;2022-09-28T10:44:00;3.97;;;3.40;;
17265;SDS011;8749;47.076;15.412;2022-09-28T10:46:34;3.38;;;3.17;;
17265;SDS011;8749;47.076;15.412;2022-09-28T10:49:04;3.50;;;3.30;;
17265;SDS011;8749;47.076;15.412;2022-09-28T10:51:39;4.03;;;3.72;;
17265;SDS011;8749;47.076;15.412;2022-09-28T10:54:08;3.40;;;3.25;;
17265;SDS011;8749;47.076;15.412;2022-09-28T10:56:40;4.93;;;3.65;;
17265;SDS011;8749;47.076;15.412;2022-09-28T10:59:21;5.28;;;3.60;;
17265;SDS011;8749;47.076;15.412;2022-09-28T11:01:53;3.80;;;3.50;;
17265;SDS011;8749;47.076;15.412;2022-09-28T11:04:23;3.35;;;3.15;;
17265;SDS011;8749;47.076;15.412;2022-09-28T11:06:53;3.20;;;3.00;;
17265;SDS011;8749;47.076;15.412;2022-09-28T11:09:25;3.25;;;3.05;;
17265;SDS011;8749;47.076;15.412;2022-09-28T11:11:54;3.33;;;3.08;;
17265;SDS011;8749;47.076;15.412;2022-09-28T11:14:24;3.13;;;3.00;;
17265;SDS011;8749;47.076;15.412;2022-09-28T11:17:15;3.35;;;3.00;;
17265;SDS011;8749;47.076;15.412;2022-09-28T11:19:43;3.85;;;3.00;;
17265;SDS011;8749;47.076;15.412;2022-09-28T11:22:20;3.10;;;2.80;;
17265;SDS011;8749;47.076;15.412;2022-09-28T11:24:49;2.72;;;2.63;;
17265;SDS011;8749;47.076;15.412;2022-09-28T11:27:19;3.10;;;2.90;;
17265;SDS011;8749;47.076;15.412;2022-09-28T11:29:53;2.90;;;2.80;;
17265;SDS011;8749;47.076;15.412;2022-09-28T11:32:25;3.70;;;2.90;;
17265;SDS011;8749;47.076;15.412;2022-09-28T11:34:57;3.33;;;3.13;;
17265;SDS011;8749;47.076;15.412;2022-09-28T11:37:29;2.90;;;2.70;;
17265;SDS011;8749;47.076;15.412;2022-09-28T11:40:13;2.55;;;2.45;;
17265;SDS011;8749;47.076;15.412;2022-09-28T11:42:53;3.25;;;2.60;;
17265;SDS011;8749;47.076;15.412;2022-09-28T11:45:35;3.00;;;2.80;;
17265;SDS011;8749;47.076;15.412;2022-09-28T11:48:12;2.90;;;2.70;;
17265;SDS011;8749;47.076;15.412;2022-09-28T11:50:44;3.50;;;2.90;;
17265;SDS011;8749;47.076;15.412;2022-09-28T11:53:17;3.42;;;2.83;;
17265;SDS011;8749;47.076;15.412;2022-09-28T11:55:50;5.72;;;5.10;;
17265;SDS011;8749;47.076;15.412;2022-09-28T11:58:24;3.92;;;3.63;;
17265;SDS011;8749;47.076;15.412;2022-09-28T12:00:57;3.25;;;3.00;;
17265;SDS011;8749;47.076;15.412;2022-09-28T12:03:32;3.00;;;2.80;;
17265;SDS011;8749;47.076;15.412;2022-09-28T12:06:04;3.28;;;2.97;;
17265;SDS011;8749;47.076;15.412;2022-09-28T12:08:35;3.03;;;2.90;;
17265;SDS011;8749;47.076;15.412;2022-09-28T12:11:06;3.00;;;2.70;;
17265;SDS011;8749;47.076;15.412;2022-09-28T12:13:40;2.83;;;2.67;;
17265;SDS011;8749;47.076;15.412;2022-09-28T12:16:12;2.40;;;2.20;;
17265;SDS011;8749;47.076;15.412;2022-09-28T12:18:47;2.53;;;2.33;;
17265;SDS011;8749;47.076;15.412;2022-09-28T12:21:25;3.05;;;2.45;;
17265;SDS011;8749;47.076;15.412;2022-09-28T12:24:00;2.47;;;2.28;;
17265;SDS011;8749;47.076;15.412;2022-09-28T12:26:32;3.40;;;2.40;;
17265;SDS011;8749;47.076;15.412;2022-09-28T12:29:04;3.90;;;3.60;;
17265;SDS011;8749;47.076;15.412;2022-09-28T12:31:37;6.50;;;4.50;;
17265;SDS011;8749;47.076;15.412;2022-09-28T12:34:11;2.83;;;2.70;;
17265;SDS011;8749;47.076;15.412;2022-09-28T12:36:40;2.78;;;2.67;;
17265;SDS011;8749;47.076;15.412;2022-09-28T12:39:21;2.80;;;2.60;;
17265;SDS011;8749;47.076;15.412;2022-09-28T12:42:07;3.95;;;2.28;;
17265;SDS011;8749;47.076;15.412;2022-09-28T12:44:50;2.67;;;2.50;;
17265;SDS011;8749;47.076;15.412;2022-09-28T12:47:34;2.67;;;2.53;;
17265;SDS011;8749;47.076;15.412;2022-09-28T12:50:17;2.90;;;2.42;;
17265;SDS011;8749;47.076;15.412;2022-09-28T12:52:50;3.00;;;2.42;;
17265;SDS011;8749;47.076;15.412;2022-09-28T12:55:37;2.42;;;2.33;;
17265;SDS011;8749;47.076;15.412;2022-09-28T12:58:19;2.85;;;2.42;;
17265;SDS011;8749;47.076;15.412;2022-09-28T13:01:24;2.67;;;2.50;;
17265;SDS011;8749;47.076;15.412;2022-09-28T13:04:08;2.58;;;2.38;;
17265;SDS011;8749;47.076;15.412;2022-09-28T13:06:56;2.70;;;2.50;;
17265;SDS011;8749;47.076;15.412;2022-09-28T13:09:29;5.05;;;4.63;;
17265;SDS011;8749;47.076;15.412;2022-09-28T13:12:05;15.35;;;11.80;;
17265;SDS011;8749;47.076;15.412;2022-09-28T13:14:59;20.95;;;15.23;;
17265;SDS011;8749;47.076;15.412;2022-09-28T13:17:47;5.07;;;4.72;;
17265;SDS011;8749;47.076;15.412;2022-09-28T13:20:24;4.07;;;3.25;;
17265;SDS011;8749;47.076;15.412;2022-09-28T13:23:03;3.03;;;2.78;;
17265;SDS011;8749;47.076;15.412;2022-09-28T13:25:39;3.08;;;2.88;;
17265;SDS011;8749;47.076;15.412;2022-09-28T13:28:13;2.80;;;2.60;;
17265;SDS011;8749;47.076;15.412;2022-09-28T13:30:42;2.90;;;2.60;;
17265;SDS011;8749;47.076;15.412;2022-09-28T13:33:13;3.90;;;2.60;;
17265;SDS011;8749;47.076;15.412;2022-09-28T13:35:43;2.80;;;2.63;;
17265;SDS011;8749;47.076;15.412;2022-09-28T13:41:09;2.80;;;2.58;;
17265;SDS011;8749;47.076;15.412;2022-09-28T13:43:50;4.90;;;2.75;;
17265;SDS011;8749;47.076;15.412;2022-09-28T13:46:33;2.47;;;2.38;;
17265;SDS011;8749;47.076;15.412;2022-09-28T13:49:11;2.53;;;2.42;;
17265;SDS011;8749;47.076;15.412;2022-09-28T13:51:46;2.85;;;2.67;;
17265;SDS011;8749;47.076;15.412;2022-09-28T13:57:20;2.70;;;2.60;;
17265;SDS011;8749;47.076;15.412;2022-09-28T13:59:55;3.25;;;2.97;;
17265;SDS011;8749;47.076;15.412;2022-09-28T14:02:29;3.65;;;3.20;;
17265;SDS011;8749;47.076;15.412;2022-09-28T14:05:01;3.13;;;2.70;;
17265;SDS011;8749;47.076;15.412;2022-09-28T14:10:44;4.20;;;3.80;;
17265;SDS011;8749;47.076;15.412;2022-09-28T14:16:19;2.60;;;2.50;;
17265;SDS011;8749;47.076;15.412;2022-09-28T14:18:47;2.60;;;2.40;;
17265;SDS011;8749;47.076;15.412;2022-09-28T14:21:22;2.60;;;2.50;;
17265;SDS011;8749;47.076;15.412;2022-09-28T14:24:12;2.50;;;2.40;;
17265;SDS011;8749;47.076;15.412;2022-09-28T14:29:39;2.50;;;2.40;;
17265;SDS011;8749;47.076;15.412;2022-09-28T14:32:20;2.28;;;2.08;;
17265;SDS011;8749;47.076;15.412;2022-09-28T14:34:53;3.60;;;2.50;;
17265;SDS011;8749;47.076;15.412;2022-09-28T14:37:24;2.30;;;2.20;;
17265;SDS011;8749;47.076;15.412;2022-09-28T14:40:17;6.57;;;2.17;;
17265;SDS011;8749;47.076;15.412;2022-09-28T14:48:52;1.90;;;1.80;;
17265;SDS011;8749;47.076;15.412;2022-09-28T14:54:22;2.70;;;2.50;;
17265;SDS011;8749;47.076;15.412;2022-09-28T14:56:55;3.08;;;2.88;;
17265;SDS011;8749;47.076;15.412;2022-09-28T14:59:38;3.53;;;2.30;;
17265;SDS011;8749;47.076;15.412;2022-09-28T15:02:10;2.03;;;1.92;;
17265;SDS011;8749;47.076;15.412;2022-09-28T15:04:57;2.00;;;1.90;;
17265;SDS011;8749;47.076;15.412;2022-09-28T15:07:41;2.00;;;1.80;;
17265;SDS011;8749;47.076;15.412;2022-09-28T15:10:20;1.88;;;1.77;;
17265;SDS011;8749;47.076;15.412;2022-09-28T15:12:50;2.85;;;2.30;;
17265;SDS011;8749;47.076;15.412;2022-09-28T15:15:23;2.42;;;2.30;;
17265;SDS011;8749;47.076;15.412;2022-09-28T15:17:56;2.95;;;2.72;;
17265;SDS011;8749;47.076;15.412;2022-09-28T15:20:51;2.40;;;2.20;;
17265;SDS011;8749;47.076;15.412;2022-09-28T15:23:24;4.30;;;3.90;;
17265;SDS011;8749;47.076;15.412;2022-09-28T15:25:53;4.25;;;3.70;;
17265;SDS011;8749;47.076;15.412;2022-09-28T15:28:21;4.47;;;4.07;;
17265;SDS011;8749;47.076;15.412;2022-09-28T15:30:50;2.80;;;2.70;;
17265;SDS011;8749;47.076;15.412;2022-09-28T15:33:25;3.42;;;2.40;;
17265;SDS011;8749;47.076;15.412;2022-09-28T15:36:07;2.50;;;2.13;;
17265;SDS011;8749;47.076;15.412;2022-09-28T15:38:50;3.25;;;2.95;;
17265;SDS011;8749;47.076;15.412;2022-09-28T15:41:21;6.05;;;4.40;;
17265;SDS011;8749;47.076;15.412;2022-09-28T15:47:04;4.93;;;4.00;;
17265;SDS011;8749;47.076;15.412;2022-09-28T15:49:34;3.42;;;2.88;;
17265;SDS011;8749;47.076;15.412;2022-09-28T15:52:05;2.30;;;2.17;;